7  °C
Temperature
5  °C
  Dewpoint
87  %
   Humidity
Temp | Dewpoint | Humidity
21  km/h
Wind Speed
13  mph
Wind Speed
11  kts
Wind Speed
240°
West South
West

Wind Speed
Clear
Conditions
Pressure 1019.92 (hPa) - 30.12 (in)
Visibility 6.2 (mi) - 10.0 (km)

Current Conditions
EHRD
Location Rotterdam 6km (3.2mi)
Metar :EHRD 191855Z AUTO 24011KT 9999 NSC 07/05 Q1020 NOSIG
Tue 19th February 19:55 pm

Airport
  Metar Aviation API Data Provided by https://www.checkwx.com/ CSS/SVG/PHP scripts by weather34.com © 2015-2019